sensor_id;sensor_type;location;lat;lon;timestamp;temperature;humidity
47022;DHT22;32779;52.264;6.154;2024-01-16T00:00:12;-0.30;99.90
47022;DHT22;32779;52.264;6.154;2024-01-16T00:02:37;-0.30;99.90
47022;DHT22;32779;52.264;6.154;2024-01-16T00:05:03;-0.30;99.90
47022;DHT22;32779;52.264;6.154;2024-01-16T00:07:29;-0.30;99.90
47022;DHT22;32779;52.264;6.154;2024-01-16T00:09:55;-0.30;99.90
47022;DHT22;32779;52.264;6.154;2024-01-16T00:12:20;-0.30;99.90
47022;DHT22;32779;52.264;6.154;2024-01-16T00:14:46;-0.30;99.90
47022;DHT22;32779;52.264;6.154;2024-01-16T00:17:12;-0.20;99.90
47022;DHT22;32779;52.264;6.154;2024-01-16T00:19:37;-0.20;99.90
47022;DHT22;32779;52.264;6.154;2024-01-16T00:22:03;-0.20;99.90
47022;DHT22;32779;52.264;6.154;2024-01-16T00:24:30;-0.20;99.90
47022;DHT22;32779;52.264;6.154;2024-01-16T00:26:56;-0.20;99.90
47022;DHT22;32779;52.264;6.154;2024-01-16T00:29:21;-0.20;99.90
47022;DHT22;32779;52.264;6.154;2024-01-16T00:31:47;-0.30;99.90
47022;DHT22;32779;52.264;6.154;2024-01-16T00:34:13;-0.30;99.90
47022;DHT22;32779;52.264;6.154;2024-01-16T00:36:38;-0.30;99.90
47022;DHT22;32779;52.264;6.154;2024-01-16T00:39:04;-0.30;99.90
47022;DHT22;32779;52.264;6.154;2024-01-16T00:41:29;-0.30;99.90
47022;DHT22;32779;52.264;6.154;2024-01-16T00:43:55;-0.30;99.90
47022;DHT22;32779;52.264;6.154;2024-01-16T00:46:21;-0.30;99.90
47022;DHT22;32779;52.264;6.154;2024-01-16T00:48:46;-0.20;99.90
47022;DHT22;32779;52.264;6.154;2024-01-16T00:51:13;-0.20;99.90
47022;DHT22;32779;52.264;6.154;2024-01-16T00:53:42;-0.20;99.90
47022;DHT22;32779;52.264;6.154;2024-01-16T00:56:08;-0.20;99.90
47022;DHT22;32779;52.264;6.154;2024-01-16T00:58:34;-0.20;99.90
47022;DHT22;32779;52.264;6.154;2024-01-16T01:01:00;-0.20;99.90
47022;DHT22;32779;52.264;6.154;2024-01-16T01:03:26;-0.20;99.90
47022;DHT22;32779;52.264;6.154;2024-01-16T01:05:51;-0.30;99.90
47022;DHT22;32779;52.264;6.154;2024-01-16T01:08:17;-0.30;99.90
47022;DHT22;32779;52.264;6.154;2024-01-16T01:10:42;-0.20;99.90
47022;DHT22;32779;52.264;6.154;2024-01-16T01:13:08;-0.30;99.90
47022;DHT22;32779;52.264;6.154;2024-01-16T01:15:34;-0.40;99.90
47022;DHT22;32779;52.264;6.154;2024-01-16T01:17:59;-0.40;99.90
47022;DHT22;32779;52.264;6.154;2024-01-16T01:20:25;-0.40;99.90
47022;DHT22;32779;52.264;6.154;2024-01-16T01:22:51;-0.40;99.90
47022;DHT22;32779;52.264;6.154;2024-01-16T01:25:16;-0.40;99.90
47022;DHT22;32779;52.264;6.154;2024-01-16T01:27:42;-0.40;99.90
47022;DHT22;32779;52.264;6.154;2024-01-16T01:30:08;-0.40;99.90
47022;DHT22;32779;52.264;6.154;2024-01-16T01:32:37;-0.40;99.90
47022;DHT22;32779;52.264;6.154;2024-01-16T01:35:03;-0.40;99.90
47022;DHT22;32779;52.264;6.154;2024-01-16T01:37:29;-0.40;99.90
47022;DHT22;32779;52.264;6.154;2024-01-16T01:39:55;-0.40;99.90
47022;DHT22;32779;52.264;6.154;2024-01-16T01:42:20;-0.40;99.90
47022;DHT22;32779;52.264;6.154;2024-01-16T01:44:46;-0.40;99.90
47022;DHT22;32779;52.264;6.154;2024-01-16T01:47:11;-0.40;99.90
47022;DHT22;32779;52.264;6.154;2024-01-16T01:49:37;-0.40;99.90
47022;DHT22;32779;52.264;6.154;2024-01-16T01:52:03;-0.40;99.90
47022;DHT22;32779;52.264;6.154;2024-01-16T01:54:30;-0.40;99.90
47022;DHT22;32779;52.264;6.154;2024-01-16T01:56:56;-0.40;99.90
47022;DHT22;32779;52.264;6.154;2024-01-16T01:59:23;-0.40;99.90
47022;DHT22;32779;52.264;6.154;2024-01-16T02:01:51;-0.40;99.90
47022;DHT22;32779;52.264;6.154;2024-01-16T02:04:21;-0.40;99.90
47022;DHT22;32779;52.264;6.154;2024-01-16T02:06:48;-0.40;99.90
47022;DHT22;32779;52.264;6.154;2024-01-16T02:09:13;-0.40;99.90
47022;DHT22;32779;52.264;6.154;2024-01-16T02:11:40;-0.40;99.90
47022;DHT22;32779;52.264;6.154;2024-01-16T02:14:06;-0.40;99.90
47022;DHT22;32779;52.264;6.154;2024-01-16T02:16:36;-0.40;99.90
47022;DHT22;32779;52.264;6.154;2024-01-16T02:19:06;-0.30;99.90
47022;DHT22;32779;52.264;6.154;2024-01-16T02:21:39;-0.30;99.90
47022;DHT22;32779;52.264;6.154;2024-01-16T02:24:08;-0.30;99.90
47022;DHT22;32779;52.264;6.154;2024-01-16T02:26:35;-0.30;99.90
47022;DHT22;32779;52.264;6.154;2024-01-16T02:29:01;-0.30;99.90
47022;DHT22;32779;52.264;6.154;2024-01-16T02:31:27;-0.30;99.90
47022;DHT22;32779;52.264;6.154;2024-01-16T02:33:53;-0.30;99.90
47022;DHT22;32779;52.264;6.154;2024-01-16T02:36:18;-0.30;99.90
47022;DHT22;32779;52.264;6.154;2024-01-16T02:38:44;-0.30;99.90
47022;DHT22;32779;52.264;6.154;2024-01-16T02:41:13;-0.30;99.90
47022;DHT22;32779;52.264;6.154;2024-01-16T02:43:39;-0.30;99.90
47022;DHT22;32779;52.264;6.154;2024-01-16T02:46:04;-0.40;99.90
47022;DHT22;32779;52.264;6.154;2024-01-16T02:48:30;-0.30;99.90
47022;DHT22;32779;52.264;6.154;2024-01-16T02:50:56;-0.40;99.90
47022;DHT22;32779;52.264;6.154;2024-01-16T02:53:21;-0.30;99.90
47022;DHT22;32779;52.264;6.154;2024-01-16T02:55:47;-0.40;99.90
47022;DHT22;32779;52.264;6.154;2024-01-16T02:58:12;-0.40;99.90
47022;DHT22;32779;52.264;6.154;2024-01-16T03:00:38;-0.30;99.90
47022;DHT22;32779;52.264;6.154;2024-01-16T03:03:03;-0.40;99.90
47022;DHT22;32779;52.264;6.154;2024-01-16T03:05:29;-0.40;99.90
47022;DHT22;32779;52.264;6.154;2024-01-16T03:07:55;-0.40;99.90
47022;DHT22;32779;52.264;6.154;2024-01-16T03:10:20;-0.40;99.90
47022;DHT22;32779;52.264;6.154;2024-01-16T03:12:46;-0.40;99.90
47022;DHT22;32779;52.264;6.154;2024-01-16T03:15:12;-0.40;99.90
47022;DHT22;32779;52.264;6.154;2024-01-16T03:17:38;-0.50;99.90
47022;DHT22;32779;52.264;6.154;2024-01-16T03:20:03;-0.40;99.90
47022;DHT22;32779;52.264;6.154;2024-01-16T03:22:29;-0.40;99.90
47022;DHT22;32779;52.264;6.154;2024-01-16T03:24:55;-0.40;99.90
47022;DHT22;32779;52.264;6.154;2024-01-16T03:27:20;-0.40;99.90
47022;DHT22;32779;52.264;6.154;2024-01-16T03:29:46;-0.50;99.90
47022;DHT22;32779;52.264;6.154;2024-01-16T03:32:11;-0.50;99.90
47022;DHT22;32779;52.264;6.154;2024-01-16T03:34:37;-0.50;99.90
47022;DHT22;32779;52.264;6.154;2024-01-16T03:37:02;-0.50;99.90
47022;DHT22;32779;52.264;6.154;2024-01-16T03:39:28;-0.50;99.90
47022;DHT22;32779;52.264;6.154;2024-01-16T03:41:54;-0.50;99.90
47022;DHT22;32779;52.264;6.154;2024-01-16T03:44:19;-0.50;99.90
47022;DHT22;32779;52.264;6.154;2024-01-16T03:46:45;-0.50;99.90
47022;DHT22;32779;52.264;6.154;2024-01-16T03:49:11;-0.50;99.90
47022;DHT22;32779;52.264;6.154;2024-01-16T03:51:36;-0.50;99.90
47022;DHT22;32779;52.264;6.154;2024-01-16T03:54:02;-0.50;99.90
47022;DHT22;32779;52.264;6.154;2024-01-16T03:56:28;-0.50;99.90
47022;DHT22;32779;52.264;6.154;2024-01-16T03:58:54;-0.50;99.90
47022;DHT22;32779;52.264;6.154;2024-01-16T04:01:30;-0.40;99.90
47022;DHT22;32779;52.264;6.154;2024-01-16T04:03:56;-0.40;99.90
47022;DHT22;32779;52.264;6.154;2024-01-16T04:06:21;-0.40;99.90
47022;DHT22;32779;52.264;6.154;2024-01-16T04:08:47;-0.40;99.90
47022;DHT22;32779;52.264;6.154;2024-01-16T04:11:13;-0.40;99.90
47022;DHT22;32779;52.264;6.154;2024-01-16T04:13:39;-0.40;99.90
47022;DHT22;32779;52.264;6.154;2024-01-16T04:16:05;-0.40;99.90
47022;DHT22;32779;52.264;6.154;2024-01-16T04:18:39;-0.30;99.90
47022;DHT22;32779;52.264;6.154;2024-01-16T04:21:05;-0.20;99.90
47022;DHT22;32779;52.264;6.154;2024-01-16T04:23:31;-0.20;99.90
47022;DHT22;32779;52.264;6.154;2024-01-16T04:25:57;-0.20;99.90
47022;DHT22;32779;52.264;6.154;2024-01-16T04:28:23;-0.20;99.90
47022;DHT22;32779;52.264;6.154;2024-01-16T04:30:49;-0.20;99.90
47022;DHT22;32779;52.264;6.154;2024-01-16T04:33:14;-0.20;99.90
47022;DHT22;32779;52.264;6.154;2024-01-16T04:35:40;-0.20;99.90
47022;DHT22;32779;52.264;6.154;2024-01-16T04:38:05;-0.20;99.90
47022;DHT22;32779;52.264;6.154;2024-01-16T04:40:31;-0.20;99.90
47022;DHT22;32779;52.264;6.154;2024-01-16T04:42:56;-0.20;99.90
47022;DHT22;32779;52.264;6.154;2024-01-16T04:45:22;-0.20;99.90
47022;DHT22;32779;52.264;6.154;2024-01-16T04:47:48;-0.20;99.90
47022;DHT22;32779;52.264;6.154;2024-01-16T04:50:14;-0.20;99.90
47022;DHT22;32779;52.264;6.154;2024-01-16T04:52:39;-0.20;99.90
47022;DHT22;32779;52.264;6.154;2024-01-16T04:55:05;-0.20;99.90
47022;DHT22;32779;52.264;6.154;2024-01-16T04:57:31;-0.20;99.90
47022;DHT22;32779;52.264;6.154;2024-01-16T04:59:56;-0.30;99.90
47022;DHT22;32779;52.264;6.154;2024-01-16T05:02:22;-0.30;99.90
47022;DHT22;32779;52.264;6.154;2024-01-16T05:04:47;-0.30;99.90
47022;DHT22;32779;52.264;6.154;2024-01-16T05:07:15;-0.30;99.90
47022;DHT22;32779;52.264;6.154;2024-01-16T05:09:40;-0.30;99.90
47022;DHT22;32779;52.264;6.154;2024-01-16T05:12:06;-0.30;99.90
47022;DHT22;32779;52.264;6.154;2024-01-16T05:14:32;-0.30;99.90
47022;DHT22;32779;52.264;6.154;2024-01-16T05:16:57;-0.30;99.90
47022;DHT22;32779;52.264;6.154;2024-01-16T05:19:23;-0.40;99.90
47022;DHT22;32779;52.264;6.154;2024-01-16T05:21:48;-0.40;99.90
47022;DHT22;32779;52.264;6.154;2024-01-16T05:24:14;-0.30;99.90
47022;DHT22;32779;52.264;6.154;2024-01-16T05:26:40;-0.30;99.90
47022;DHT22;32779;52.264;6.154;2024-01-16T05:29:05;-0.30;99.90
47022;DHT22;32779;52.264;6.154;2024-01-16T05:31:32;-0.30;99.90
47022;DHT22;32779;52.264;6.154;2024-01-16T05:33:57;-0.30;99.90
47022;DHT22;32779;52.264;6.154;2024-01-16T05:36:23;-0.30;99.90
47022;DHT22;32779;52.264;6.154;2024-01-16T05:38:50;-0.30;99.90
47022;DHT22;32779;52.264;6.154;2024-01-16T05:41:15;-0.20;99.90
47022;DHT22;32779;52.264;6.154;2024-01-16T05:43:41;-0.20;99.90
47022;DHT22;32779;52.264;6.154;2024-01-16T05:46:07;-0.20;99.90
47022;DHT22;32779;52.264;6.154;2024-01-16T05:48:32;-0.20;99.90
47022;DHT22;32779;52.264;6.154;2024-01-16T05:50:58;-0.10;99.90
47022;DHT22;32779;52.264;6.154;2024-01-16T05:53:23;-0.10;99.90
47022;DHT22;32779;52.264;6.154;2024-01-16T05:55:49;-0.10;99.90
47022;DHT22;32779;52.264;6.154;2024-01-16T05:58:14;-0.10;99.90
47022;DHT22;32779;52.264;6.154;2024-01-16T06:00:40;0.00;99.90
47022;DHT22;32779;52.264;6.154;2024-01-16T06:03:06;0.00;99.90
47022;DHT22;32779;52.264;6.154;2024-01-16T06:05:31;0.10;99.90
47022;DHT22;32779;52.264;6.154;2024-01-16T06:07:57;0.10;99.90
47022;DHT22;32779;52.264;6.154;2024-01-16T06:10:22;0.10;99.90
47022;DHT22;32779;52.264;6.154;2024-01-16T06:12:48;0.10;99.90
47022;DHT22;32779;52.264;6.154;2024-01-16T06:15:13;0.20;99.90
47022;DHT22;32779;52.264;6.154;2024-01-16T06:17:40;0.20;99.90
47022;DHT22;32779;52.264;6.154;2024-01-16T06:20:06;0.20;99.90
47022;DHT22;32779;52.264;6.154;2024-01-16T06:22:32;0.10;99.90
47022;DHT22;32779;52.264;6.154;2024-01-16T06:24:57;0.10;99.90
47022;DHT22;32779;52.264;6.154;2024-01-16T06:27:23;0.10;99.90
47022;DHT22;32779;52.264;6.154;2024-01-16T06:29:48;0.10;99.90
47022;DHT22;32779;52.264;6.154;2024-01-16T06:32:14;0.10;99.90
47022;DHT22;32779;52.264;6.154;2024-01-16T06:34:40;0.10;99.90
47022;DHT22;32779;52.264;6.154;2024-01-16T06:37:05;0.10;99.90
47022;DHT22;32779;52.264;6.154;2024-01-16T06:39:31;0.00;99.90
47022;DHT22;32779;52.264;6.154;2024-01-16T06:41:56;0.00;99.90
47022;DHT22;32779;52.264;6.154;2024-01-16T06:44:22;0.00;99.90
47022;DHT22;32779;52.264;6.154;2024-01-16T06:46:48;0.00;99.90
47022;DHT22;32779;52.264;6.154;2024-01-16T06:49:13;0.00;99.90
47022;DHT22;32779;52.264;6.154;2024-01-16T06:51:39;0.10;99.90
47022;DHT22;32779;52.264;6.154;2024-01-16T06:54:04;0.10;99.90
47022;DHT22;32779;52.264;6.154;2024-01-16T06:56:31;0.10;99.90
47022;DHT22;32779;52.264;6.154;2024-01-16T06:58:56;0.10;99.90
47022;DHT22;32779;52.264;6.154;2024-01-16T07:01:22;0.10;99.90
47022;DHT22;32779;52.264;6.154;2024-01-16T07:03:48;0.10;99.90
47022;DHT22;32779;52.264;6.154;2024-01-16T07:06:13;0.20;99.90
47022;DHT22;32779;52.264;6.154;2024-01-16T07:08:39;0.20;99.90
47022;DHT22;32779;52.264;6.154;2024-01-16T07:11:04;0.20;99.90
47022;DHT22;32779;52.264;6.154;2024-01-16T07:13:33;0.20;99.90
47022;DHT22;32779;52.264;6.154;2024-01-16T07:15:59;0.20;99.90
47022;DHT22;32779;52.264;6.154;2024-01-16T07:18:27;0.30;99.90
47022;DHT22;32779;52.264;6.154;2024-01-16T07:20:52;0.20;99.90
47022;DHT22;32779;52.264;6.154;2024-01-16T07:23:18;0.30;99.90
47022;DHT22;32779;52.264;6.154;2024-01-16T07:25:43;0.30;99.90
47022;DHT22;32779;52.264;6.154;2024-01-16T07:28:09;0.30;99.90
47022;DHT22;32779;52.264;6.154;2024-01-16T07:30:35;0.30;99.90
47022;DHT22;32779;52.264;6.154;2024-01-16T07:33:02;0.30;99.90
47022;DHT22;32779;52.264;6.154;2024-01-16T07:35:28;0.30;99.90
47022;DHT22;32779;52.264;6.154;2024-01-16T07:37:53;0.30;99.90
47022;DHT22;32779;52.264;6.154;2024-01-16T07:40:19;0.30;99.90
47022;DHT22;32779;52.264;6.154;2024-01-16T07:42:45;0.30;99.90
47022;DHT22;32779;52.264;6.154;2024-01-16T07:45:11;0.30;99.90
47022;DHT22;32779;52.264;6.154;2024-01-16T07:47:37;0.30;99.90
47022;DHT22;32779;52.264;6.154;2024-01-16T07:50:03;0.30;99.90
47022;DHT22;32779;52.264;6.154;2024-01-16T07:52:29;0.40;99.90
47022;DHT22;32779;52.264;6.154;2024-01-16T07:54:54;0.40;99.90
47022;DHT22;32779;52.264;6.154;2024-01-16T07:57:20;0.40;99.90
47022;DHT22;32779;52.264;6.154;2024-01-16T07:59:46;0.40;99.90
47022;DHT22;32779;52.264;6.154;2024-01-16T08:02:11;0.40;99.90
47022;DHT22;32779;52.264;6.154;2024-01-16T08:04:37;0.30;99.90
47022;DHT22;32779;52.264;6.154;2024-01-16T08:07:03;0.30;99.90
47022;DHT22;32779;52.264;6.154;2024-01-16T08:09:29;0.30;99.90
47022;DHT22;32779;52.264;6.154;2024-01-16T08:11:54;0.30;99.90
47022;DHT22;32779;52.264;6.154;2024-01-16T08:14:20;0.40;99.90
47022;DHT22;32779;52.264;6.154;2024-01-16T08:16:45;0.40;99.90
47022;DHT22;32779;52.264;6.154;2024-01-16T08:19:11;0.40;99.90
47022;DHT22;32779;52.264;6.154;2024-01-16T08:21:36;0.40;99.90
47022;DHT22;32779;52.264;6.154;2024-01-16T08:24:02;0.40;99.90
47022;DHT22;32779;52.264;6.154;2024-01-16T08:26:27;0.40;99.90
47022;DHT22;32779;52.264;6.154;2024-01-16T08:28:54;0.40;99.90
47022;DHT22;32779;52.264;6.154;2024-01-16T08:31:19;0.50;99.90
47022;DHT22;32779;52.264;6.154;2024-01-16T08:33:45;0.50;99.90
47022;DHT22;32779;52.264;6.154;2024-01-16T08:36:11;0.60;99.90
47022;DHT22;32779;52.264;6.154;2024-01-16T08:38:37;0.50;99.90
47022;DHT22;32779;52.264;6.154;2024-01-16T08:41:02;0.50;99.90
47022;DHT22;32779;52.264;6.154;2024-01-16T08:43:35;0.50;99.90
47022;DHT22;32779;52.264;6.154;2024-01-16T08:46:00;0.50;99.90
47022;DHT22;32779;52.264;6.154;2024-01-16T08:48:26;0.60;99.90
47022;DHT22;32779;52.264;6.154;2024-01-16T08:50:52;0.60;99.90
47022;DHT22;32779;52.264;6.154;2024-01-16T08:53:19;0.60;99.90
47022;DHT22;32779;52.264;6.154;2024-01-16T08:55:45;0.60;99.90
47022;DHT22;32779;52.264;6.154;2024-01-16T08:58:10;0.60;99.90
47022;DHT22;32779;52.264;6.154;2024-01-16T09:00:36;0.60;99.90
47022;DHT22;32779;52.264;6.154;2024-01-16T09:03:03;0.60;99.90
47022;DHT22;32779;52.264;6.154;2024-01-16T09:05:29;0.60;99.90
47022;DHT22;32779;52.264;6.154;2024-01-16T09:07:55;0.60;99.90
47022;DHT22;32779;52.264;6.154;2024-01-16T09:10:20;0.60;99.90
47022;DHT22;32779;52.264;6.154;2024-01-16T09:12:46;0.60;99.90
47022;DHT22;32779;52.264;6.154;2024-01-16T09:15:11;0.70;99.90
47022;DHT22;32779;52.264;6.154;2024-01-16T09:17:37;0.60;99.90
47022;DHT22;32779;52.264;6.154;2024-01-16T09:20:05;0.70;99.90
47022;DHT22;32779;52.264;6.154;2024-01-16T09:22:32;0.70;99.90
47022;DHT22;32779;52.264;6.154;2024-01-16T09:24:57;0.70;99.90
47022;DHT22;32779;52.264;6.154;2024-01-16T09:27:23;0.70;99.90
47022;DHT22;32779;52.264;6.154;2024-01-16T09:29:49;0.70;99.90
47022;DHT22;32779;52.264;6.154;2024-01-16T09:32:14;0.80;99.90
47022;DHT22;32779;52.264;6.154;2024-01-16T09:34:40;0.70;99.90
47022;DHT22;32779;52.264;6.154;2024-01-16T09:37:05;0.80;99.90
47022;DHT22;32779;52.264;6.154;2024-01-16T09:39:31;0.80;99.90
47022;DHT22;32779;52.264;6.154;2024-01-16T09:41:59;0.80;99.90
47022;DHT22;32779;52.264;6.154;2024-01-16T09:44:25;0.80;99.90
47022;DHT22;32779;52.264;6.154;2024-01-16T09:46:53;0.80;99.90
47022;DHT22;32779;52.264;6.154;2024-01-16T09:49:20;0.80;99.90
47022;DHT22;32779;52.264;6.154;2024-01-16T09:51:46;0.80;99.90
47022;DHT22;32779;52.264;6.154;2024-01-16T09:54:11;0.80;99.90
47022;DHT22;32779;52.264;6.154;2024-01-16T09:56:44;0.80;99.90
47022;DHT22;32779;52.264;6.154;2024-01-16T09:59:14;0.80;99.90
47022;DHT22;32779;52.264;6.154;2024-01-16T10:01:41;0.90;99.90
47022;DHT22;32779;52.264;6.154;2024-01-16T10:04:07;0.80;99.90
47022;DHT22;32779;52.264;6.154;2024-01-16T10:06:33;0.80;99.90
47022;DHT22;32779;52.264;6.154;2024-01-16T10:08:59;0.80;99.90
47022;DHT22;32779;52.264;6.154;2024-01-16T10:11:25;0.80;99.90
47022;DHT22;32779;52.264;6.154;2024-01-16T10:13:51;0.80;99.90
47022;DHT22;32779;52.264;6.154;2024-01-16T10:16:16;0.80;99.90
47022;DHT22;32779;52.264;6.154;2024-01-16T10:18:42;0.70;99.90
47022;DHT22;32779;52.264;6.154;2024-01-16T10:21:22;0.80;99.90
47022;DHT22;32779;52.264;6.154;2024-01-16T10:23:48;0.80;99.90
47022;DHT22;32779;52.264;6.154;2024-01-16T10:26:14;0.80;99.90
47022;DHT22;32779;52.264;6.154;2024-01-16T10:28:41;0.80;99.90
47022;DHT22;32779;52.264;6.154;2024-01-16T10:31:08;0.90;99.90
47022;DHT22;32779;52.264;6.154;2024-01-16T10:33:34;0.90;99.90
47022;DHT22;32779;52.264;6.154;2024-01-16T10:36:12;0.90;99.90
47022;DHT22;32779;52.264;6.154;2024-01-16T10:38:39;0.90;99.90
47022;DHT22;32779;52.264;6.154;2024-01-16T10:41:09;1.00;99.90
47022;DHT22;32779;52.264;6.154;2024-01-16T10:43:34;1.00;99.90
47022;DHT22;32779;52.264;6.154;2024-01-16T10:46:08;1.00;99.90
47022;DHT22;32779;52.264;6.154;2024-01-16T10:48:34;1.00;99.90
47022;DHT22;32779;52.264;6.154;2024-01-16T10:51:01;1.10;99.90
47022;DHT22;32779;52.264;6.154;2024-01-16T10:53:33;1.10;99.90
47022;DHT22;32779;52.264;6.154;2024-01-16T10:56:00;1.20;99.90
47022;DHT22;32779;52.264;6.154;2024-01-16T10:58:30;1.20;99.90
47022;DHT22;32779;52.264;6.154;2024-01-16T11:00:57;1.20;99.90
47022;DHT22;32779;52.264;6.154;2024-01-16T11:03:48;1.30;99.90
47022;DHT22;32779;52.264;6.154;2024-01-16T11:06:18;1.30;99.90
47022;DHT22;32779;52.264;6.154;2024-01-16T11:08:51;1.30;99.90
47022;DHT22;32779;52.264;6.154;2024-01-16T11:11:17;1.40;99.90
47022;DHT22;32779;52.264;6.154;2024-01-16T11:13:43;1.40;99.90
47022;DHT22;32779;52.264;6.154;2024-01-16T11:16:11;1.50;99.90
47022;DHT22;32779;52.264;6.154;2024-01-16T11:18:37;1.50;99.90
47022;DHT22;32779;52.264;6.154;2024-01-16T11:21:11;1.50;99.90
47022;DHT22;32779;52.264;6.154;2024-01-16T11:23:38;1.50;99.90
47022;DHT22;32779;52.264;6.154;2024-01-16T11:28:54;1.60;99.90
47022;DHT22;32779;52.264;6.154;2024-01-16T11:31:32;1.60;99.90
47022;DHT22;32779;52.264;6.154;2024-01-16T11:33:59;1.70;99.90
47022;DHT22;32779;52.264;6.154;2024-01-16T11:36:48;1.70;99.90
47022;DHT22;32779;52.264;6.154;2024-01-16T11:39:18;1.70;99.90
47022;DHT22;32779;52.264;6.154;2024-01-16T11:41:48;1.70;99.90
47022;DHT22;32779;52.264;6.154;2024-01-16T11:47:06;1.80;99.90
47022;DHT22;32779;52.264;6.154;2024-01-16T11:49:32;1.80;99.90
47022;DHT22;32779;52.264;6.154;2024-01-16T11:51:58;1.90;99.90
47022;DHT22;32779;52.264;6.154;2024-01-16T11:54:24;1.90;99.90
47022;DHT22;32779;52.264;6.154;2024-01-16T12:00:02;1.90;99.90
47022;DHT22;32779;52.264;6.154;2024-01-16T12:02:52;1.90;99.90
47022;DHT22;32779;52.264;6.154;2024-01-16T12:05:20;1.90;99.90
47022;DHT22;32779;52.264;6.154;2024-01-16T12:07:47;1.90;99.90
47022;DHT22;32779;52.264;6.154;2024-01-16T12:10:20;1.90;99.90
47022;DHT22;32779;52.264;6.154;2024-01-16T12:12:48;1.90;99.90
47022;DHT22;32779;52.264;6.154;2024-01-16T12:15:21;1.90;99.90
47022;DHT22;32779;52.264;6.154;2024-01-16T12:18:00;2.00;99.90
47022;DHT22;32779;52.264;6.154;2024-01-16T12:20:29;1.90;99.90
47022;DHT22;32779;52.264;6.154;2024-01-16T12:23:05;1.90;99.90
47022;DHT22;32779;52.264;6.154;2024-01-16T12:25:36;1.90;99.90
47022;DHT22;32779;52.264;6.154;2024-01-16T12:30:32;1.90;99.90
47022;DHT22;32779;52.264;6.154;2024-01-16T12:33:08;1.90;99.90
47022;DHT22;32779;52.264;6.154;2024-01-16T12:35:41;2.00;99.90
47022;DHT22;32779;52.264;6.154;2024-01-16T12:38:09;2.00;99.90
47022;DHT22;32779;52.264;6.154;2024-01-16T12:40:35;2.00;99.90
47022;DHT22;32779;52.264;6.154;2024-01-16T12:43:05;2.00;99.90
47022;DHT22;32779;52.264;6.154;2024-01-16T12:45:31;2.10;99.90
47022;DHT22;32779;52.264;6.154;2024-01-16T12:47:58;2.10;99.90
47022;DHT22;32779;52.264;6.154;2024-01-16T12:50:27;2.20;99.90
47022;DHT22;32779;52.264;6.154;2024-01-16T12:53:11;2.20;99.90
47022;DHT22;32779;52.264;6.154;2024-01-16T12:55:40;2.20;99.90
47022;DHT22;32779;52.264;6.154;2024-01-16T12:58:16;2.30;99.90
47022;DHT22;32779;52.264;6.154;2024-01-16T13:00:44;2.30;99.90
47022;DHT22;32779;52.264;6.154;2024-01-16T13:03:18;2.30;99.90
47022;DHT22;32779;52.264;6.154;2024-01-16T13:05:44;2.20;99.90
47022;DHT22;32779;52.264;6.154;2024-01-16T13:08:17;2.20;99.90
47022;DHT22;32779;52.264;6.154;2024-01-16T13:10:42;2.20;99.90
47022;DHT22;32779;52.264;6.154;2024-01-16T13:13:18;2.20;99.90
47022;DHT22;32779;52.264;6.154;2024-01-16T13:15:45;2.20;99.90
47022;DHT22;32779;52.264;6.154;2024-01-16T13:18:21;2.20;99.90
47022;DHT22;32779;52.264;6.154;2024-01-16T13:20:55;2.20;99.90
47022;DHT22;32779;52.264;6.154;2024-01-16T13:23:22;2.10;99.90
47022;DHT22;32779;52.264;6.154;2024-01-16T13:25:49;2.10;99.90
47022;DHT22;32779;52.264;6.154;2024-01-16T13:28:16;2.10;99.90
47022;DHT22;32779;52.264;6.154;2024-01-16T13:30:43;2.00;99.90
47022;DHT22;32779;52.264;6.154;2024-01-16T13:33:09;2.00;99.90
47022;DHT22;32779;52.264;6.154;2024-01-16T13:35:37;1.90;99.90
47022;DHT22;32779;52.264;6.154;2024-01-16T13:38:03;1.80;99.90
47022;DHT22;32779;52.264;6.154;2024-01-16T13:40:29;1.70;99.90
47022;DHT22;32779;52.264;6.154;2024-01-16T13:42:55;1.70;99.90
47022;DHT22;32779;52.264;6.154;2024-01-16T13:45:21;1.70;99.90
47022;DHT22;32779;52.264;6.154;2024-01-16T13:47:46;1.70;99.90
47022;DHT22;32779;52.264;6.154;2024-01-16T13:50:12;1.70;99.90
47022;DHT22;32779;52.264;6.154;2024-01-16T13:52:38;1.70;99.90
47022;DHT22;32779;52.264;6.154;2024-01-16T13:55:07;1.70;99.90
47022;DHT22;32779;52.264;6.154;2024-01-16T13:57:33;1.70;99.90
47022;DHT22;32779;52.264;6.154;2024-01-16T14:00:06;1.60;99.90
47022;DHT22;32779;52.264;6.154;2024-01-16T14:02:32;1.60;99.90
47022;DHT22;32779;52.264;6.154;2024-01-16T14:05:00;1.60;99.90
47022;DHT22;32779;52.264;6.154;2024-01-16T14:07:26;1.60;99.90
47022;DHT22;32779;52.264;6.154;2024-01-16T14:09:51;1.60;99.90
47022;DHT22;32779;52.264;6.154;2024-01-16T14:12:17;1.60;99.90
47022;DHT22;32779;52.264;6.154;2024-01-16T14:14:44;1.60;99.90
47022;DHT22;32779;52.264;6.154;2024-01-16T14:17:11;1.60;99.90
47022;DHT22;32779;52.264;6.154;2024-01-16T14:19:36;1.60;99.90
47022;DHT22;32779;52.264;6.154;2024-01-16T14:22:03;1.60;99.90
47022;DHT22;32779;52.264;6.154;2024-01-16T14:24:29;1.60;99.90
47022;DHT22;32779;52.264;6.154;2024-01-16T14:26:55;1.60;99.90
47022;DHT22;32779;52.264;6.154;2024-01-16T14:29:24;1.60;99.90
47022;DHT22;32779;52.264;6.154;2024-01-16T14:31:51;1.60;99.90
47022;DHT22;32779;52.264;6.154;2024-01-16T14:34:17;1.60;99.90
47022;DHT22;32779;52.264;6.154;2024-01-16T14:36:46;1.60;99.90
47022;DHT22;32779;52.264;6.154;2024-01-16T14:39:11;1.60;99.90
47022;DHT22;32779;52.264;6.154;2024-01-16T14:41:41;1.60;99.90
47022;DHT22;32779;52.264;6.154;2024-01-16T14:44:09;1.50;99.90
47022;DHT22;32779;52.264;6.154;2024-01-16T14:46:35;1.50;99.90
47022;DHT22;32779;52.264;6.154;2024-01-16T14:49:01;1.50;99.90
47022;DHT22;32779;52.264;6.154;2024-01-16T14:51:27;1.50;99.90
47022;DHT22;32779;52.264;6.154;2024-01-16T14:53:53;1.40;99.90
47022;DHT22;32779;52.264;6.154;2024-01-16T14:56:18;1.40;99.90
47022;DHT22;32779;52.264;6.154;2024-01-16T14:58:45;1.40;99.90
47022;DHT22;32779;52.264;6.154;2024-01-16T15:01:11;1.40;99.90
47022;DHT22;32779;52.264;6.154;2024-01-16T15:03:36;1.40;99.90
47022;DHT22;32779;52.264;6.154;2024-01-16T15:06:02;1.40;99.90
47022;DHT22;32779;52.264;6.154;2024-01-16T15:08:28;1.30;99.90
47022;DHT22;32779;52.264;6.154;2024-01-16T15:10:57;1.30;99.90
47022;DHT22;32779;52.264;6.154;2024-01-16T15:13:25;1.30;99.90
47022;DHT22;32779;52.264;6.154;2024-01-16T15:15:51;1.30;99.90
47022;DHT22;32779;52.264;6.154;2024-01-16T15:18:19;1.30;99.90
47022;DHT22;32779;52.264;6.154;2024-01-16T15:20:44;1.20;99.90
47022;DHT22;32779;52.264;6.154;2024-01-16T15:23:11;1.20;99.90
47022;DHT22;32779;52.264;6.154;2024-01-16T15:25:37;1.20;99.90
47022;DHT22;32779;52.264;6.154;2024-01-16T15:28:03;1.10;99.90
47022;DHT22;32779;52.264;6.154;2024-01-16T15:30:29;1.10;99.90
47022;DHT22;32779;52.264;6.154;2024-01-16T15:33:01;1.00;99.90
47022;DHT22;32779;52.264;6.154;2024-01-16T15:35:26;1.00;99.90
47022;DHT22;32779;52.264;6.154;2024-01-16T15:37:52;1.00;99.90
47022;DHT22;32779;52.264;6.154;2024-01-16T15:40:18;1.00;99.90
47022;DHT22;32779;52.264;6.154;2024-01-16T15:42:44;0.90;99.90
47022;DHT22;32779;52.264;6.154;2024-01-16T15:45:10;0.90;99.90
47022;DHT22;32779;52.264;6.154;2024-01-16T15:47:36;0.80;99.90